Time;durP1;ratioP1;P1;durP2;ratioP2;P2;SDS_P1;SDS_P2;PMS_P1;PMS_P2;Temp;Humidity;BMP_temperature;BMP_pressure;BME280_temperature;BME280_humidity;BME280_pressure;Samples;Min_cycle;Max_cycle;Signal;HPM_P1;HPM_P2
2022/08/16 00:01:19;;;;;;;2.00;1.90;;;;;;;;;;5030670;28;20445;-57
2022/08/16 00:03:45;;;;;;;2.13;2.03;;;;;;;;;;5035846;28;20088;-62
2022/08/16 00:06:12;;;;;;;2.13;2.00;;;;;;;;;;5032121;28;20646;-52
2022/08/16 00:08:38;;;;;;;2.42;2.22;;;;;;;;;;5033109;28;20045;-54
2022/08/16 00:11:05;;;;;;;2.40;2.30;;;;;;;;;;5031883;28;20050;-52
2022/08/16 00:13:32;;;;;;;2.30;2.20;;;;;;;;;;5037311;28;20045;-55
2022/08/16 00:15:59;;;;;;;2.10;1.90;;;;;;;;;;5039373;28;20045;-57
2022/08/16 00:18:25;;;;;;;2.10;2.00;;;;;;;;;;5034154;28;20341;-62
2022/08/16 00:20:51;;;;;;;2.05;1.95;;;;;;;;;;5037016;28;20033;-56
2022/08/16 00:23:17;;;;;;;2.35;2.15;;;;;;;;;;5035699;28;20115;-56
2022/08/16 00:25:43;;;;;;;1.77;1.67;;;;;;;;;;5036691;28;20619;-56
2022/08/16 00:28:10;;;;;;;2.38;2.28;;;;;;;;;;5034598;28;20091;-56
2022/08/16 00:30:36;;;;;;;2.10;2.00;;;;;;;;;;5031129;28;20033;-55
2022/08/16 00:33:02;;;;;;;2.70;2.50;;;;;;;;;;5030887;28;20040;-56
2022/08/16 00:35:30;;;;;;;1.80;1.70;;;;;;;;;;5032888;28;20098;-57
2022/08/16 00:37:56;;;;;;;2.05;1.92;;;;;;;;;;5032763;28;20045;-49
2022/08/16 00:40:28;;;;;;;2.00;1.90;;;;;;;;;;5031957;28;20041;-51
2022/08/16 00:42:54;;;;;;;1.73;1.63;;;;;;;;;;5034226;28;20505;-62
2022/08/16 00:45:23;;;;;;;1.70;1.60;;;;;;;;;;5034988;28;20067;-51
2022/08/16 00:47:50;;;;;;;1.88;1.77;;;;;;;;;;5037559;28;20106;-60
2022/08/16 00:50:19;;;;;;;1.85;1.73;;;;;;;;;;5034135;28;20045;-54
2022/08/16 00:52:45;;;;;;;2.63;1.73;;;;;;;;;;5043425;28;20137;-56
2022/08/16 00:55:12;;;;;;;1.80;1.70;;;;;;;;;;5026011;28;20507;-56
2022/08/16 00:57:38;;;;;;;1.70;1.60;;;;;;;;;;5026877;28;20041;-51
2022/08/16 01:00:05;;;;;;;1.83;1.73;;;;;;;;;;5043882;28;20099;-58
2022/08/16 01:02:32;;;;;;;1.80;1.70;;;;;;;;;;5043970;28;20057;-52
2022/08/16 01:04:58;;;;;;;2.03;1.92;;;;;;;;;;5043763;28;20044;-52
2022/08/16 01:07:24;;;;;;;1.90;1.80;;;;;;;;;;5043158;28;20540;-55
2022/08/16 01:09:50;;;;;;;1.98;1.88;;;;;;;;;;5044290;28;20053;-55
2022/08/16 01:12:18;;;;;;;1.90;1.77;;;;;;;;;;5042575;28;20422;-49
2022/08/16 01:14:46;;;;;;;1.60;1.50;;;;;;;;;;5042562;28;20056;-51
2022/08/16 01:17:13;;;;;;;1.98;1.88;;;;;;;;;;5043369;28;20375;-52
2022/08/16 01:19:44;;;;;;;2.08;1.95;;;;;;;;;;5025888;28;20084;-53
2022/08/16 01:22:25;;;;;;;1.63;1.50;;;;;;;;;;5042723;28;20044;-58
2022/08/16 01:24:59;;;;;;;1.75;1.65;;;;;;;;;;5043970;28;20104;-50
2022/08/16 01:27:28;;;;;;;1.73;1.63;;;;;;;;;;5043445;28;20060;-59
2022/08/16 01:30:04;;;;;;;2.15;2.03;;;;;;;;;;5041732;28;20045;-52
2022/08/16 01:32:31;;;;;;;1.65;1.55;;;;;;;;;;5042875;28;20048;-54
2022/08/16 01:34:57;;;;;;;1.98;1.88;;;;;;;;;;5042912;28;20079;-52
2022/08/16 01:37:23;;;;;;;1.80;1.70;;;;;;;;;;5043711;28;20828;-53
2022/08/16 01:39:49;;;;;;;1.90;1.33;;;;;;;;;;5042891;28;20074;-63
2022/08/16 01:42:15;;;;;;;1.40;1.38;;;;;;;;;;5042628;28;20123;-55
2022/08/16 01:44:41;;;;;;;2.00;1.90;;;;;;;;;;5043396;28;20414;-53
2022/08/16 01:47:08;;;;;;;2.20;2.00;;;;;;;;;;5043044;28;20040;-54
2022/08/16 01:49:36;;;;;;;2.17;2.08;;;;;;;;;;5042316;28;20047;-54
2022/08/16 01:52:07;;;;;;;1.90;1.80;;;;;;;;;;5043297;28;20467;-54
2022/08/16 01:54:33;;;;;;;2.15;2.05;;;;;;;;;;5042382;28;20535;-55
2022/08/16 01:57:00;;;;;;;1.90;1.80;;;;;;;;;;5042680;28;20094;-51
2022/08/16 01:59:27;;;;;;;1.80;1.70;;;;;;;;;;5042994;28;20468;-52
2022/08/16 02:01:53;;;;;;;1.98;1.83;;;;;;;;;;5043024;28;20118;-53
2022/08/16 02:04:21;;;;;;;1.98;1.88;;;;;;;;;;5042411;28;20401;-59
2022/08/16 02:06:47;;;;;;;2.25;2.15;;;;;;;;;;5043228;28;20386;-55
2022/08/16 02:09:14;;;;;;;1.85;1.75;;;;;;;;;;5042733;28;20041;-53
2022/08/16 02:11:42;;;;;;;1.55;1.45;;;;;;;;;;5041453;28;20052;-53
2022/08/16 02:14:08;;;;;;;1.30;1.30;;;;;;;;;;5024842;28;20049;-50
2022/08/16 02:16:34;;;;;;;2.10;2.00;;;;;;;;;;5042378;28;20045;-58
2022/08/16 02:19:00;;;;;;;1.98;1.83;;;;;;;;;;5042718;28;20120;-51
2022/08/16 02:21:27;;;;;;;1.83;1.73;;;;;;;;;;5041949;28;20107;-60
2022/08/16 02:23:53;;;;;;;1.67;1.58;;;;;;;;;;5042871;28;20037;-55
2022/08/16 02:26:19;;;;;;;2.08;1.98;;;;;;;;;;5042150;28;20045;-53
2022/08/16 02:28:45;;;;;;;2.15;1.95;;;;;;;;;;5043263;28;20057;-61
2022/08/16 02:31:13;;;;;;;1.83;1.73;;;;;;;;;;5041534;28;20397;-57
2022/08/16 02:33:39;;;;;;;2.00;1.88;;;;;;;;;;5042556;28;20057;-56
2022/08/16 02:36:05;;;;;;;2.15;1.95;;;;;;;;;;5043042;28;20094;-55
2022/08/16 02:38:32;;;;;;;2.60;2.40;;;;;;;;;;5041927;28;20054;-56
2022/08/16 02:40:59;;;;;;;2.05;1.95;;;;;;;;;;5041225;28;20041;-49
2022/08/16 02:43:26;;;;;;;1.70;1.60;;;;;;;;;;5042571;28;20098;-56
2022/08/16 02:45:52;;;;;;;1.95;1.85;;;;;;;;;;5041958;28;20037;-49
2022/08/16 02:48:18;;;;;;;1.85;1.75;;;;;;;;;;5042687;28;20048;-58
2022/08/16 02:50:45;;;;;;;2.15;2.05;;;;;;;;;;5044413;28;20759;-63
2022/08/16 02:53:11;;;;;;;2.42;2.22;;;;;;;;;;5038248;28;20048;-52
2022/08/16 02:55:37;;;;;;;3.08;2.25;;;;;;;;;;5034035;28;20444;-52
2022/08/16 02:58:04;;;;;;;3.10;2.88;;;;;;;;;;5036545;28;20042;-53
2022/08/16 03:00:30;;;;;;;2.60;2.40;;;;;;;;;;5032806;28;20080;-57
2022/08/16 03:02:57;;;;;;;2.95;2.75;;;;;;;;;;5037359;28;20124;-58
2022/08/16 03:05:23;;;;;;;2.38;2.17;;;;;;;;;;5036391;28;20129;-52
2022/08/16 03:07:49;;;;;;;3.45;2.55;;;;;;;;;;5039327;28;20056;-52
2022/08/16 03:10:15;;;;;;;2.33;2.22;;;;;;;;;;5031870;28;20075;-57
2022/08/16 03:12:44;;;;;;;2.45;2.25;;;;;;;;;;5038124;28;20606;-52
2022/08/16 03:15:12;;;;;;;2.20;2.10;;;;;;;;;;5018004;28;20041;-58
2022/08/16 03:17:38;;;;;;;2.30;2.20;;;;;;;;;;5031865;28;20044;-54
2022/08/16 03:20:07;;;;;;;3.08;2.88;;;;;;;;;;5032622;28;20042;-52
2022/08/16 03:22:34;;;;;;;2.17;1.98;;;;;;;;;;5033097;28;20041;-49
2022/08/16 03:25:01;;;;;;;2.47;2.28;;;;;;;;;;5034023;28;20041;-54
2022/08/16 03:27:27;;;;;;;2.20;2.10;;;;;;;;;;5032348;28;20049;-58
2022/08/16 03:29:53;;;;;;;2.10;2.00;;;;;;;;;;5035032;28;20064;-52
2022/08/16 03:32:19;;;;;;;2.20;2.10;;;;;;;;;;5033510;28;19924;-58
2022/08/16 03:34:45;;;;;;;;;;;;;;;;;;5034428;28;20073;-55
2022/08/16 03:37:12;;;;;;;1.85;1.75;;;;;;;;;;5031221;28;19927;-55
2022/08/16 03:39:38;;;;;;;2.25;2.15;;;;;;;;;;5037888;28;19921;-52
2022/08/16 03:42:04;;;;;;;1.80;1.70;;;;;;;;;;5037467;28;20091;-53
2022/08/16 03:44:31;;;;;;;;;;;;;;;;;;5033166;28;20519;-56
2022/08/16 03:46:57;;;;;;;2.50;2.30;;;;;;;;;;5031882;28;20004;-56
2022/08/16 03:49:23;;;;;;;2.67;2.58;;;;;;;;;;5030484;28;19929;-51
2022/08/16 03:51:49;;;;;;;2.53;2.22;;;;;;;;;;5032280;28;20528;-61
2022/08/16 03:54:15;;;;;;;2.57;2.37;;;;;;;;;;5035929;28;20053;-52
2022/08/16 03:56:41;;;;;;;2.47;2.28;;;;;;;;;;5032329;28;20045;-54
2022/08/16 03:59:07;;;;;;;2.57;2.47;;;;;;;;;;5035820;28;20041;-55
2022/08/16 04:01:33;;;;;;;;;;;;;;;;;;5029722;28;20050;-52
2022/08/16 04:03:59;;;;;;;;;;;;;;;;;;5034448;28;20309;-50
2022/08/16 04:06:25;;;;;;;;;;;;;;;;;;5033188;28;19921;-52
2022/08/16 04:08:52;;;;;;;3.42;2.55;;;;;;;;;;5035614;28;19928;-54
2022/08/16 04:11:18;;;;;;;2.40;2.30;;;;;;;;;;5037975;28;20080;-52
2022/08/16 04:13:46;;;;;;;2.92;2.72;;;;;;;;;;5033604;28;19985;-53
2022/08/16 04:16:13;;;;;;;2.97;2.65;;;;;;;;;;5037172;28;20102;-53
2022/08/16 04:18:41;;;;;;;2.97;2.78;;;;;;;;;;5035151;28;20091;-52
2022/08/16 04:21:07;;;;;;;;;;;;;;;;;;5034740;28;20110;-54
2022/08/16 04:23:33;;;;;;;;;;;;;;;;;;5033384;28;21499;-60
2022/08/16 04:25:59;;;;;;;;;;;;;;;;;;5038500;28;19993;-52
2022/08/16 04:28:25;;;;;;;;;;;;;;;;;;5033619;28;19932;-61
2022/08/16 04:30:51;;;;;;;2.75;2.60;;;;;;;;;;5031378;28;19951;-57
2022/08/16 04:33:17;;;;;;;3.20;3.00;;;;;;;;;;5035989;28;20040;-59
2022/08/16 04:35:44;;;;;;;;;;;;;;;;;;5019874;28;19924;-50
2022/08/16 04:38:10;;;;;;;;;;;;;;;;;;5033049;28;20136;-52
2022/08/16 04:40:36;;;;;;;;;;;;;;;;;;5032602;28;19964;-52
2022/08/16 04:43:02;;;;;;;;;;;;;;;;;;5028600;28;20000;-51
2022/08/16 04:45:28;;;;;;;;;;;;;;;;;;5036438;28;19929;-52
2022/08/16 04:47:54;;;;;;;4.15;3.85;;;;;;;;;;5035343;28;20383;-52
2022/08/16 04:50:22;;;;;;;3.67;3.40;;;;;;;;;;5031084;28;20520;-57
2022/08/16 04:52:49;;;;;;;3.30;3.10;;;;;;;;;;5040468;28;20048;-52
2022/08/16 04:55:16;;;;;;;3.20;3.00;;;;;;;;;;5042512;28;20048;-52
2022/08/16 04:57:43;;;;;;;2.67;2.47;;;;;;;;;;5043934;28;20037;-54
2022/08/16 05:00:10;;;;;;;;;;;;;;;;;;5042126;28;20417;-55
2022/08/16 05:02:36;;;;;;;;;;;;;;;;;;5043246;28;19921;-59
2022/08/16 05:05:02;;;;;;;;;;;;;;;;;;5044339;28;20384;-50
2022/08/16 05:07:28;;;;;;;;;;;;;;;;;;5042177;28;19937;-56
2022/08/16 05:09:54;;;;;;;;;;;;;;;;;;5044487;28;20124;-50
2022/08/16 05:12:20;;;;;;;;;;;;;;;;;;5026327;28;19924;-62
2022/08/16 05:14:46;;;;;;;;;;;;;;;;;;5042577;28;20409;-56
2022/08/16 05:17:12;;;;;;;;;;;;;;;;;;5043169;28;19921;-57
2022/08/16 05:19:38;;;;;;;;;;;;;;;;;;5043569;28;19924;-52
2022/08/16 05:22:04;;;;;;;;;;;;;;;;;;5042929;28;19932;-55
2022/08/16 05:24:30;;;;;;;;;;;;;;;;;;5043547;28;19929;-57
2022/08/16 05:26:55;;;;;;;;;;;;;;;;;;5042113;28;19975;-54
2022/08/16 05:29:21;;;;;;;;;;;;;;;;;;5043706;28;19927;-53
2022/08/16 05:31:47;;;;;;;;;;;;;;;;;;5044048;28;19925;-55
2022/08/16 05:34:13;;;;;;;;;;;;;;;;;;5041549;28;20010;-51
2022/08/16 05:36:39;;;;;;;;;;;;;;;;;;5044027;28;19928;-53
2022/08/16 05:39:05;;;;;;;;;;;;;;;;;;5043277;28;20631;-52
2022/08/16 05:41:31;;;;;;;;;;;;;;;;;;5041586;28;19920;-57
2022/08/16 05:43:59;;;;;;;;;;;;;;;;;;5042743;28;19924;-50
2022/08/16 05:46:25;;;;;;;;;;;;;;;;;;5042226;28;19931;-61
2022/08/16 05:48:51;;;;;;;;;;;;;;;;;;5042685;28;19929;-52
2022/08/16 05:51:18;;;;;;;;;;;;;;;;;;5040337;28;19920;-56
2022/08/16 05:53:44;;;;;;;;;;;;;;;;;;5031992;28;19924;-51
2022/08/16 05:56:10;;;;;;;;;;;;;;;;;;5015255;28;19950;-57
2022/08/16 05:58:36;;;;;;;;;;;;;;;;;;5030810;28;19948;-53
2022/08/16 06:01:01;;;;;;;;;;;;;;;;;;5033380;28;19927;-54
2022/08/16 06:03:27;;;;;;;;;;;;;;;;;;5032228;28;20016;-52
2022/08/16 06:05:53;;;;;;;;;;;;;;;;;;5031165;28;20029;-52
2022/08/16 06:08:19;;;;;;;;;;;;;;;;;;5025593;28;20380;-52
2022/08/16 06:10:45;;;;;;;;;;;;;;;;;;5031127;28;19929;-55
2022/08/16 06:13:11;;;;;;;;;;;;;;;;;;5023984;28;20008;-58
2022/08/16 06:15:37;;;;;;;5.90;5.40;;;;;;;;;;5013963;28;19925;-53
2022/08/16 06:18:03;;;;;;;6.70;6.10;;;;;;;;;;5027810;28;20070;-54
2022/08/16 06:20:29;;;;;;;;;;;;;;;;;;5030530;28;19947;-54
2022/08/16 06:22:55;;;;;;;;;;;;;;;;;;5037284;28;19924;-57
2022/08/16 06:25:21;;;;;;;;;;;;;;;;;;5041834;28;19929;-52
2022/08/16 06:27:47;;;;;;;;;;;;;;;;;;5029743;28;19921;-55
2022/08/16 06:30:13;;;;;;;;;;;;;;;;;;5036169;28;19983;-55
2022/08/16 06:32:40;;;;;;;7.22;6.63;;;;;;;;;;5033479;28;20433;-52
2022/08/16 06:35:06;;;;;;;7.20;6.60;;;;;;;;;;5034548;28;20930;-54
2022/08/16 06:37:32;;;;;;;;;;;;;;;;;;5033327;28;20099;-57
2022/08/16 06:39:58;;;;;;;6.72;6.22;;;;;;;;;;5037954;28;19933;-56
2022/08/16 06:42:24;;;;;;;;;;;;;;;;;;5041373;28;20045;-57
2022/08/16 06:44:51;;;;;;;;;;;;;;;;;;5042293;28;19931;-54
2022/08/16 06:47:16;;;;;;;;;;;;;;;;;;5038137;28;19925;-52
2022/08/16 06:49:42;;;;;;;;;;;;;;;;;;5037812;28;19966;-52
2022/08/16 06:52:08;;;;;;;;;;;;;;;;;;5036136;28;19921;-52
2022/08/16 06:54:34;;;;;;;;;;;;;;;;;;5037422;28;19933;-54
2022/08/16 06:57:00;;;;;;;12.60;9.55;;;;;;;;;;5038631;28;19964;-55
2022/08/16 06:59:27;;;;;;;11.52;10.35;;;;;;;;;;5035688;28;20349;-51
2022/08/16 07:01:53;;;;;;;9.05;8.15;;;;;;;;;;5026413;28;20073;-54
2022/08/16 07:04:19;;;;;;;7.32;6.72;;;;;;;;;;5039914;28;20052;-53
2022/08/16 07:06:45;;;;;;;6.35;5.85;;;;;;;;;;5042417;28;20095;-58
2022/08/16 07:09:12;;;;;;;9.65;8.85;;;;;;;;;;5046049;28;20049;-59
2022/08/16 07:11:38;;;;;;;7.65;7.05;;;;;;;;;;5025029;28;20037;-50
2022/08/16 07:14:04;;;;;;;7.68;7.07;;;;;;;;;;5025399;28;20466;-55
2022/08/16 07:16:30;;;;;;;5.78;5.35;;;;;;;;;;5036192;28;20074;-54
2022/08/16 07:18:57;;;;;;;7.00;6.50;;;;;;;;;;5029250;28;20041;-58
2022/08/16 07:21:24;;;;;;;7.82;7.22;;;;;;;;;;5035126;28;20100;-50
2022/08/16 07:23:50;;;;;;;8.80;8.00;;;;;;;;;;5028833;28;20085;-62
2022/08/16 07:26:20;;;;;;;8.10;7.43;;;;;;;;;;5028912;28;20092;-49
2022/08/16 07:28:46;;;;;;;6.70;6.20;;;;;;;;;;5044420;28;20041;-55
2022/08/16 07:31:12;;;;;;;9.00;8.18;;;;;;;;;;5038165;28;20046;-57
2022/08/16 07:33:38;;;;;;;8.43;7.50;;;;;;;;;;5028115;28;20045;-51
2022/08/16 07:36:06;;;;;;;8.55;7.85;;;;;;;;;;5010892;28;20421;-52
2022/08/16 07:38:32;;;;;;;10.18;9.25;;;;;;;;;;5030127;28;20053;-56
2022/08/16 07:40:58;;;;;;;9.55;8.63;;;;;;;;;;5039990;28;20076;-55
2022/08/16 07:43:25;;;;;;;8.30;7.55;;;;;;;;;;5039789;28;20394;-55
2022/08/16 07:45:51;;;;;;;8.18;7.38;;;;;;;;;;5032051;28;20080;-57
2022/08/16 07:48:17;;;;;;;6.20;5.70;;;;;;;;;;5029615;28;20044;-51
2022/08/16 07:50:44;;;;;;;6.60;6.00;;;;;;;;;;5030028;28;20076;-53
2022/08/16 07:53:10;;;;;;;6.55;6.05;;;;;;;;;;5034140;28;20564;-60
2022/08/16 07:55:36;;;;;;;9.88;7.25;;;;;;;;;;5039345;28;20067;-50
2022/08/16 07:58:04;;;;;;;8.02;7.32;;;;;;;;;;5034160;28;20053;-55
2022/08/16 08:00:30;;;;;;;7.22;6.68;;;;;;;;;;5039654;28;20045;-52
2022/08/16 08:02:57;;;;;;;6.18;5.70;;;;;;;;;;5028948;28;20091;-54
2022/08/16 08:05:23;;;;;;;6.63;6.03;;;;;;;;;;5027648;28;20063;-58
2022/08/16 08:07:52;;;;;;;11.05;9.95;;;;;;;;;;5039080;28;20063;-55
2022/08/16 08:10:18;;;;;;;9.27;8.48;;;;;;;;;;5045908;28;20497;-53
2022/08/16 08:12:44;;;;;;;6.97;6.38;;;;;;;;;;5047246;28;20065;-52
2022/08/16 08:15:10;;;;;;;5.25;4.93;;;;;;;;;;5029492;28;20235;-50
2022/08/16 08:17:38;;;;;;;5.70;4.80;;;;;;;;;;5047205;28;20045;-51
2022/08/16 08:20:05;;;;;;;5.97;5.47;;;;;;;;;;5047632;28;20049;-54
2022/08/16 08:22:32;;;;;;;5.82;5.32;;;;;;;;;;5047633;28;20075;-53
2022/08/16 08:24:58;;;;;;;6.95;6.32;;;;;;;;;;5046535;28;20049;-49
2022/08/16 08:27:24;;;;;;;7.15;6.55;;;;;;;;;;5047791;28;20052;-49
2022/08/16 08:29:50;;;;;;;6.80;6.20;;;;;;;;;;5047048;28;20045;-61
2022/08/16 08:32:18;;;;;;;6.53;5.97;;;;;;;;;;5047614;28;20044;-56
2022/08/16 08:34:44;;;;;;;8.45;7.80;;;;;;;;;;5047615;28;20383;-53
2022/08/16 08:37:10;;;;;;;7.70;6.90;;;;;;;;;;5045914;28;20064;-56
2022/08/16 08:39:39;;;;;;;7.10;6.43;;;;;;;;;;5047245;28;20416;-52
2022/08/16 08:42:06;;;;;;;6.20;5.60;;;;;;;;;;5047190;28;20045;-51
2022/08/16 08:44:32;;;;;;;5.72;5.22;;;;;;;;;;5046363;28;20045;-51
2022/08/16 08:47:04;;;;;;;6.40;5.75;;;;;;;;;;5046074;28;20041;-53
2022/08/16 08:49:30;;;;;;;8.25;6.15;;;;;;;;;;5043330;28;20092;-51
2022/08/16 08:51:57;;;;;;;6.60;5.97;;;;;;;;;;5046187;28;20095;-53
2022/08/16 08:54:25;;;;;;;10.40;8.25;;;;;;;;;;5044574;28;20076;-53
2022/08/16 08:56:51;;;;;;;8.45;5.80;;;;;;;;;;5040719;28;20041;-52
2022/08/16 08:59:17;;;;;;;5.05;4.65;;;;;;;;;;5038012;28;20073;-56
2022/08/16 09:01:44;;;;;;;6.20;5.70;;;;;;;;;;5037397;28;20080;-51
2022/08/16 09:04:10;;;;;;;5.10;4.60;;;;;;;;;;5042616;28;20084;-53
2022/08/16 09:06:37;;;;;;;4.18;3.85;;;;;;;;;;5032270;28;20076;-56
2022/08/16 09:09:04;;;;;;;3.58;3.38;;;;;;;;;;5034374;28;20497;-56
2022/08/16 09:11:30;;;;;;;4.18;3.67;;;;;;;;;;5037161;28;20048;-53
2022/08/16 09:13:57;;;;;;;5.35;4.80;;;;;;;;;;5030936;28;20406;-54
2022/08/16 09:16:22;;;;;;;5.47;4.93;;;;;;;;;;5028582;28;20472;-54
2022/08/16 09:18:49;;;;;;;7.70;7.10;;;;;;;;;;5040702;28;20080;-50
2022/08/16 09:21:15;;;;;;;8.05;7.38;;;;;;;;;;5041391;28;20511;-57
2022/08/16 09:23:41;;;;;;;7.95;6.05;;;;;;;;;;5043748;28;20045;-52
2022/08/16 09:26:09;;;;;;;7.45;6.72;;;;;;;;;;5043879;28;20043;-56
2022/08/16 09:28:36;;;;;;;8.90;6.22;;;;;;;;;;5045037;28;20052;-53
2022/08/16 09:31:02;;;;;;;5.88;5.38;;;;;;;;;;5045853;28;20398;-54
2022/08/16 09:33:29;;;;;;;6.55;5.95;;;;;;;;;;5044695;28;20041;-62
2022/08/16 09:35:55;;;;;;;6.07;5.68;;;;;;;;;;5044537;28;20086;-53
2022/08/16 09:38:22;;;;;;;5.85;5.45;;;;;;;;;;5045669;28;20053;-56
2022/08/16 09:40:49;;;;;;;5.85;5.35;;;;;;;;;;5041933;28;20045;-54
2022/08/16 09:43:17;;;;;;;6.50;5.93;;;;;;;;;;5040587;28;20087;-58
2022/08/16 09:45:43;;;;;;;5.65;5.22;;;;;;;;;;5046240;28;20052;-53
2022/08/16 09:48:10;;;;;;;5.25;4.80;;;;;;;;;;5043911;28;20041;-51
2022/08/16 09:50:38;;;;;;;7.03;6.43;;;;;;;;;;5042517;28;20071;-51
2022/08/16 09:53:06;;;;;;;6.43;5.82;;;;;;;;;;5029308;28;20356;-56
2022/08/16 09:55:33;;;;;;;5.47;5.03;;;;;;;;;;5024528;28;20690;-53
2022/08/16 09:57:59;;;;;;;6.10;5.63;;;;;;;;;;5025531;28;20041;-52
2022/08/16 10:00:25;;;;;;;6.07;5.47;;;;;;;;;;5030618;28;20786;-52
2022/08/16 10:02:52;;;;;;;5.85;5.35;;;;;;;;;;5031974;28;20052;-55
2022/08/16 10:05:19;;;;;;;5.18;4.78;;;;;;;;;;5046453;28;20040;-54
2022/08/16 10:07:46;;;;;;;6.57;6.03;;;;;;;;;;5029151;28;20501;-62
2022/08/16 10:10:15;;;;;;;4.63;4.30;;;;;;;;;;5025281;28;20395;-52
2022/08/16 10:15:27;;;;;;;4.25;3.95;;;;;;;;;;5039684;28;20669;-55
2022/08/16 10:17:53;;;;;;;5.53;5.13;;;;;;;;;;5046036;28;20041;-51
2022/08/16 10:20:19;;;;;;;6.40;5.68;;;;;;;;;;5046240;28;20595;-54
2022/08/16 10:22:46;;;;;;;5.97;5.47;;;;;;;;;;5044382;28;20098;-54
2022/08/16 10:25:12;;;;;;;5.97;5.47;;;;;;;;;;5029508;28;20512;-49
2022/08/16 10:27:38;;;;;;;4.30;4.05;;;;;;;;;;5023636;28;20076;-53
2022/08/16 10:30:05;;;;;;;4.28;3.97;;;;;;;;;;5011548;28;20461;-54
2022/08/16 10:32:31;;;;;;;4.70;3.67;;;;;;;;;;5020753;28;20038;-50
2022/08/16 10:34:57;;;;;;;3.58;3.30;;;;;;;;;;5013164;28;20077;-56
2022/08/16 10:37:23;;;;;;;5.18;4.68;;;;;;;;;;5023602;28;20045;-51
2022/08/16 10:39:49;;;;;;;5.05;4.60;;;;;;;;;;5016751;28;20049;-62
2022/08/16 10:42:16;;;;;;;4.72;4.43;;;;;;;;;;5020535;28;20414;-57
2022/08/16 10:44:42;;;;;;;4.82;4.38;;;;;;;;;;5020148;28;20507;-52
2022/08/16 10:47:09;;;;;;;4.55;3.72;;;;;;;;;;5014786;28;20051;-50
2022/08/16 10:49:35;;;;;;;4.30;3.90;;;;;;;;;;5021915;28;21062;-58
2022/08/16 10:52:01;;;;;;;3.55;3.35;;;;;;;;;;5033077;28;20051;-52
2022/08/16 10:54:27;;;;;;;4.15;3.80;;;;;;;;;;5042124;28;20060;-55
2022/08/16 10:56:54;;;;;;;4.63;4.22;;;;;;;;;;5042133;28;20044;-49
2022/08/16 10:59:21;;;;;;;5.15;3.70;;;;;;;;;;5037492;28;20052;-55
2022/08/16 11:01:47;;;;;;;3.30;3.10;;;;;;;;;;5034883;28;20041;-51
2022/08/16 11:04:13;;;;;;;3.10;2.90;;;;;;;;;;5035823;28;20052;-56
2022/08/16 11:06:40;;;;;;;3.47;3.17;;;;;;;;;;5039570;28;21232;-56
2022/08/16 11:09:06;;;;;;;3.33;3.13;;;;;;;;;;5042015;28;20052;-56
2022/08/16 11:11:32;;;;;;;3.17;2.90;;;;;;;;;;5039075;28;20040;-52
2022/08/16 11:13:58;;;;;;;5.05;4.30;;;;;;;;;;5038624;28;20044;-50
2022/08/16 11:16:24;;;;;;;5.35;4.95;;;;;;;;;;5039238;28;20951;-56
2022/08/16 11:18:50;;;;;;;5.18;4.32;;;;;;;;;;5039474;28;20041;-63
2022/08/16 11:21:16;;;;;;;4.70;4.30;;;;;;;;;;5036420;28;20125;-55
2022/08/16 11:23:42;;;;;;;4.13;3.17;;;;;;;;;;5039079;28;20176;-53
2022/08/16 11:26:08;;;;;;;4.20;3.70;;;;;;;;;;5036345;28;20057;-56
2022/08/16 11:28:35;;;;;;;3.65;3.45;;;;;;;;;;5040763;28;20044;-56
2022/08/16 11:31:01;;;;;;;3.95;3.58;;;;;;;;;;5037824;28;20045;-53
2022/08/16 11:33:28;;;;;;;4.80;4.32;;;;;;;;;;5041987;28;20041;-55
2022/08/16 11:35:53;;;;;;;3.90;3.60;;;;;;;;;;5045417;28;20048;-50
2022/08/16 11:38:21;;;;;;;5.20;4.75;;;;;;;;;;5047357;28;20049;-58
2022/08/16 11:40:50;;;;;;;4.75;4.35;;;;;;;;;;5044652;28;20068;-54
2022/08/16 11:43:18;;;;;;;3.47;3.20;;;;;;;;;;5044421;28;20088;-52
2022/08/16 11:45:45;;;;;;;5.70;5.20;;;;;;;;;;5032967;28;20049;-56
2022/08/16 11:48:12;;;;;;;4.65;4.25;;;;;;;;;;5035092;28;20516;-54
2022/08/16 11:50:39;;;;;;;4.45;4.05;;;;;;;;;;5044452;28;20143;-55
2022/08/16 11:53:06;;;;;;;3.88;3.67;;;;;;;;;;5036967;28;20096;-54
2022/08/16 11:55:32;;;;;;;3.60;3.38;;;;;;;;;;5037351;28;20049;-51
2022/08/16 11:57:59;;;;;;;6.00;5.60;;;;;;;;;;5043680;28;20378;-55
2022/08/16 12:00:25;;;;;;;5.10;4.70;;;;;;;;;;5038936;28;20301;-54
2022/08/16 12:02:51;;;;;;;4.40;4.05;;;;;;;;;;5037639;28;20033;-59
2022/08/16 12:05:17;;;;;;;5.00;4.55;;;;;;;;;;5045784;28;20047;-58
2022/08/16 12:07:43;;;;;;;3.80;3.47;;;;;;;;;;5024902;28;20114;-61
2022/08/16 12:10:14;;;;;;;4.47;4.07;;;;;;;;;;5044196;28;20045;-57
2022/08/16 12:12:41;;;;;;;3.83;3.53;;;;;;;;;;5045373;28;20053;-51
2022/08/16 12:15:08;;;;;;;4.40;4.10;;;;;;;;;;5038245;28;20049;-57
2022/08/16 12:17:34;;;;;;;5.10;4.38;;;;;;;;;;5033844;28;20045;-62
2022/08/16 12:20:02;;;;;;;4.63;4.22;;;;;;;;;;5032097;28;20045;-53
2022/08/16 12:22:28;;;;;;;6.40;5.22;;;;;;;;;;5029348;28;20135;-58
2022/08/16 12:24:55;;;;;;;4.97;4.43;;;;;;;;;;5031975;28;20053;-63
2022/08/16 12:27:22;;;;;;;5.07;4.68;;;;;;;;;;5030588;28;20038;-58
2022/08/16 12:29:49;;;;;;;4.38;4.07;;;;;;;;;;5027414;28;20057;-56
2022/08/16 12:32:15;;;;;;;3.58;3.38;;;;;;;;;;5029018;28;20057;-56
2022/08/16 12:34:41;;;;;;;6.47;4.50;;;;;;;;;;5033890;28;20498;-55
2022/08/16 12:37:08;;;;;;;4.53;4.15;;;;;;;;;;5042839;28;20045;-55
2022/08/16 12:39:34;;;;;;;4.03;3.72;;;;;;;;;;5033408;28;20175;-58
2022/08/16 12:42:00;;;;;;;3.65;3.45;;;;;;;;;;5031940;28;20120;-54
2022/08/16 12:44:26;;;;;;;4.78;4.05;;;;;;;;;;5031798;28;20048;-55
2022/08/16 12:49:37;;;;;;;4.00;3.67;;;;;;;;;;5032399;28;20041;-51
2022/08/16 12:52:03;;;;;;;5.45;4.47;;;;;;;;;;5030759;28;20053;-51
2022/08/16 12:54:29;;;;;;;6.18;4.10;;;;;;;;;;5033078;28;20048;-56
2022/08/16 12:56:56;;;;;;;4.30;3.10;;;;;;;;;;5035930;28;20060;-56
2022/08/16 12:59:22;;;;;;;3.58;3.25;;;;;;;;;;5028271;28;20041;-57
2022/08/16 13:01:48;;;;;;;3.63;3.38;;;;;;;;;;5032127;28;20053;-52
2022/08/16 13:04:14;;;;;;;3.35;3.15;;;;;;;;;;5029578;28;20045;-59
2022/08/16 13:06:41;;;;;;;5.22;4.72;;;;;;;;;;5032775;28;20053;-55
2022/08/16 13:09:20;;;;;;;6.00;4.30;;;;;;;;;;5028984;28;20049;-57
2022/08/16 13:12:14;;;;;;;4.53;3.80;;;;;;;;;;5031176;28;20448;-60
2022/08/16 13:14:42;;;;;;;3.05;2.80;;;;;;;;;;5027447;28;20053;-54
2022/08/16 13:17:09;;;;;;;3.22;2.95;;;;;;;;;;5033198;28;20067;-56
2022/08/16 13:19:36;;;;;;;3.72;3.42;;;;;;;;;;5037383;28;20048;-59
2022/08/16 13:22:02;;;;;;;5.05;4.65;;;;;;;;;;5043173;28;20056;-50
2022/08/16 13:24:28;;;;;;;5.32;4.28;;;;;;;;;;5037362;28;20378;-58
2022/08/16 13:26:54;;;;;;;5.80;3.78;;;;;;;;;;5021931;28;20048;-56
2022/08/16 13:29:20;;;;;;;4.15;3.85;;;;;;;;;;5043245;28;20076;-51
2022/08/16 13:31:46;;;;;;;4.30;4.00;;;;;;;;;;5041639;28;20049;-60
2022/08/16 13:34:12;;;;;;;4.70;4.30;;;;;;;;;;5044222;28;20437;-52
2022/08/16 13:36:38;;;;;;;3.95;3.65;;;;;;;;;;5043380;28;20045;-55
2022/08/16 13:39:04;;;;;;;4.50;4.13;;;;;;;;;;5025529;28;20085;-51
2022/08/16 13:41:31;;;;;;;3.72;3.42;;;;;;;;;;5043189;28;20044;-52
2022/08/16 13:44:00;;;;;;;3.20;3.00;;;;;;;;;;5041212;28;20128;-56
2022/08/16 13:46:27;;;;;;;3.58;3.35;;;;;;;;;;5041671;28;20048;-50
2022/08/16 13:48:53;;;;;;;2.72;2.53;;;;;;;;;;5036895;28;20080;-53
2022/08/16 13:51:19;;;;;;;2.05;1.95;;;;;;;;;;5036289;28;20091;-55
2022/08/16 13:53:49;;;;;;;3.50;2.42;;;;;;;;;;5024294;28;20160;-62
2022/08/16 13:56:17;;;;;;;2.03;1.92;;;;;;;;;;5037199;28;20057;-53
2022/08/16 13:58:43;;;;;;;2.10;2.00;;;;;;;;;;5033858;28;20061;-56
2022/08/16 14:01:10;;;;;;;2.50;2.30;;;;;;;;;;5034342;28;20076;-56
2022/08/16 14:03:37;;;;;;;3.53;2.15;;;;;;;;;;5030750;28;20060;-52
2022/08/16 14:06:03;;;;;;;2.20;1.95;;;;;;;;;;5028620;28;20052;-53
2022/08/16 14:08:29;;;;;;;1.90;1.80;;;;;;;;;;5032071;28;20087;-55
2022/08/16 14:10:56;;;;;;;3.30;3.00;;;;;;;;;;5033430;28;20080;-57
2022/08/16 14:13:22;;;;;;;2.20;2.08;;;;;;;;;;5033428;28;20460;-52
2022/08/16 14:15:48;;;;;;;1.95;1.85;;;;;;;;;;5034654;28;20055;-53
2022/08/16 14:18:15;;;;;;;2.13;1.95;;;;;;;;;;5039509;28;20152;-58
2022/08/16 14:20:41;;;;;;;2.30;2.20;;;;;;;;;;5040992;28;20125;-53
2022/08/16 14:23:07;;;;;;;2.40;2.20;;;;;;;;;;5035812;28;20041;-55
2022/08/16 14:25:33;;;;;;;2.83;2.50;;;;;;;;;;5043157;28;20051;-52
2022/08/16 14:27:59;;;;;;;2.30;2.20;;;;;;;;;;5042204;28;20087;-53
2022/08/16 14:30:25;;;;;;;3.58;2.70;;;;;;;;;;5032701;28;20148;-58
2022/08/16 14:32:51;;;;;;;5.10;3.40;;;;;;;;;;5044073;28;20167;-53
2022/08/16 14:35:20;;;;;;;2.38;2.25;;;;;;;;;;5045334;28;20037;-58
2022/08/16 14:37:46;;;;;;;2.30;2.17;;;;;;;;;;5037571;28;20103;-61
2022/08/16 14:40:14;;;;;;;2.30;2.20;;;;;;;;;;5038976;28;20409;-52
2022/08/16 14:42:41;;;;;;;3.88;3.58;;;;;;;;;;5042982;28;20045;-56
2022/08/16 14:45:08;;;;;;;2.97;2.60;;;;;;;;;;5039840;28;20127;-55
2022/08/16 14:47:36;;;;;;;2.63;2.10;;;;;;;;;;5038694;28;20040;-58
2022/08/16 14:50:07;;;;;;;2.50;2.38;;;;;;;;;;5019162;28;20090;-54
2022/08/16 14:52:33;;;;;;;2.40;2.30;;;;;;;;;;5036147;28;20458;-51
2022/08/16 14:54:59;;;;;;;2.17;2.08;;;;;;;;;;5037391;28;20430;-56
2022/08/16 14:57:25;;;;;;;2.50;2.30;;;;;;;;;;5037419;28;20037;-55
2022/08/16 14:59:51;;;;;;;2.10;2.00;;;;;;;;;;5037536;28;20048;-57
2022/08/16 15:02:22;;;;;;;2.15;2.00;;;;;;;;;;5037668;28;20033;-55